Time;durP1;ratioP1;P1;durP2;ratioP2;P2;SDS_P1;SDS_P2;PMS_P1;PMS_P2;Temp;Humidity;BMP_temperature;BMP_pressure;BME280_temperature;BME280_humidity;BME280_pressure;Samples;Min_cycle;Max_cycle;Signal;HPM_P1;HPM_P2
2022/10/14 00:01:22;;;;;;;;;;;16.50;66.80;;;11.97;100.00;95818.78;4950435;28;20001;-49
2022/10/14 00:03:53;;;;;;;;;;;16.40;66.70;;;11.97;100.00;95818.78;4956432;28;19910;-49
2022/10/14 00:06:31;;;;;;;;;;;16.40;66.80;;;11.94;100.00;95822.00;4955677;28;19910;-51
2022/10/14 00:09:07;;;;;;;;;;;16.40;66.90;;;11.93;100.00;95809.69;4939263;28;19914;-50
2022/10/14 00:11:36;;;;;;;;;;;16.30;66.80;;;11.90;100.00;95812.91;4939278;28;19960;-50
2022/10/14 00:14:12;;;;;;;;;;;16.30;66.90;;;11.89;100.00;95819.31;4958426;28;19913;-47
2022/10/14 00:16:43;;;;;;;;;;;16.30;66.90;;;11.87;100.00;95813.44;4955560;28;20347;-52
2022/10/14 00:19:14;;;;;;;;;;;16.30;67.00;;;11.88;100.00;95816.94;4979672;28;20007;-50
2022/10/14 00:21:45;;;;;;;;;;;16.30;67.00;;;11.87;100.00;95812.63;4922986;28;19910;-47
2022/10/14 00:24:15;;;;;;;;;;;16.30;67.00;;;11.87;100.00;95813.44;4958681;28;20331;-51
2022/10/14 00:26:45;;;;;;;;;;;16.30;67.10;;;11.85;100.00;95809.44;4955599;28;20013;-49
2022/10/14 00:29:18;;;;;;;;;;;16.20;67.00;;;11.82;100.00;95816.09;4955675;28;19910;-51
2022/10/14 00:31:50;;;;;;;;;;;16.20;67.10;;;11.79;100.00;95822.75;4960961;28;19917;-50
2022/10/14 00:34:19;;;;;;;;;;;16.20;67.10;;;11.76;100.00;95822.50;4955497;28;19921;-51
2022/10/14 00:36:45;;;;;;;;;;;16.10;67.00;;;11.71;100.00;95819.81;4973425;28;20380;-50
2022/10/14 00:39:17;;;;;;;;;;;16.10;67.10;;;11.67;100.00;95818.75;4940063;28;19916;-50
2022/10/14 00:41:52;;;;;;;;;;;16.10;67.10;;;11.62;100.00;95814.19;4955361;28;20042;-47
2022/10/14 00:44:35;;;;;;;;;;;16.00;67.00;;;11.58;100.00;95819.25;4967775;28;19921;-54
2022/10/14 00:47:01;;;;;;;;;;;16.00;67.10;;;11.55;100.00;95816.31;4954646;28;19918;-50
2022/10/14 00:49:43;;;;;;;;;;;15.90;67.20;;;11.50;100.00;95814.47;4956929;28;19910;-48
2022/10/14 00:52:23;;;;;;;;;;;15.90;67.20;;;11.47;100.00;95814.97;4954020;28;19910;-46
2022/10/14 00:54:55;;;;;;;;;;;15.80;67.20;;;11.43;100.00;95823.75;4968202;28;19968;-47
2022/10/14 00:57:25;;;;;;;;;;;15.80;67.30;;;11.39;100.00;95818.16;4932903;28;19993;-50
2022/10/14 01:00:15;;;;;;;;;;;15.80;67.40;;;11.39;100.00;95815.50;4941000;28;20004;-48
2022/10/14 01:02:41;;;;;;;;;;;15.70;67.40;;;11.37;100.00;95817.59;4958700;28;19909;-52
2022/10/14 01:05:17;;;;;;;;;;;15.80;67.60;;;11.37;100.00;95814.16;4974607;28;20307;-48
2022/10/14 01:07:59;;;;;;;;;;;15.70;67.50;;;11.35;100.00;95817.09;4963918;28;19921;-51
2022/10/14 01:11:20;;;;;;;;;;;15.70;67.60;;;11.34;100.00;95810.97;4954970;28;19914;-49
2022/10/14 01:14:23;;;;;;;;;;;15.70;67.70;;;11.34;100.00;95810.97;4949801;28;19914;-51
2022/10/14 01:17:27;;;;;;;;;;;15.70;67.70;;;11.29;100.00;95802.94;4942871;28;19916;-48
2022/10/14 01:20:36;;;;;;;;;;;15.70;67.80;;;11.29;100.00;95802.94;4948304;28;19914;-54
2022/10/14 01:23:33;;;;;;;;;;;15.70;67.80;;;11.29;100.00;95808.28;4930710;28;19917;-47
2022/10/14 01:26:41;;;;;;;;;;;15.70;68.00;;;11.31;100.00;95805.31;4954454;28;20001;-48
2022/10/14 01:29:22;;;;;;;;;;;15.70;68.00;;;11.31;100.00;95803.47;4953330;28;19936;-48
2022/10/14 01:32:09;;;;;;;;;;;15.70;68.10;;;11.35;100.00;95801.88;4972389;28;19913;-52
2022/10/14 01:35:06;;;;;;;;;;;15.70;68.00;;;11.35;100.00;95812.56;4957253;28;19933;-48
2022/10/14 01:37:38;;;;;;;;;;;15.70;68.00;;;11.35;100.00;95807.22;4953967;28;20000;-47
2022/10/14 01:40:35;;;;;;;;;;;15.70;68.00;;;11.34;100.00;95807.47;4937836;28;19996;-48
2022/10/14 01:43:05;;;;;;;;;;;15.70;68.00;;;11.33;100.00;95796.00;4937918;28;19934;-47
2022/10/14 01:45:36;;;;;;;;;;;15.60;68.70;;;11.28;100.00;95796.00;4937201;28;19917;-49
2022/10/14 01:48:10;;;;;;;;;;;15.60;67.90;;;11.23;100.00;95785.31;4921695;28;19987;-47
2022/10/14 01:50:47;;;;;;;;;;;15.60;67.90;;;11.17;100.00;95774.91;4915904;29;20009;-47
2022/10/14 01:53:26;;;;;;;;;;;15.50;67.80;;;11.09;100.00;95773.53;4948961;28;20297;-48
2022/10/14 01:55:56;;;;;;;;;;;15.50;67.80;;;11.01;100.00;95768.75;4953079;28;19977;-49
2022/10/14 01:58:27;;;;;;;;;;;15.40;67.80;;;10.93;100.00;95769.22;4952564;28;20353;-47
2022/10/14 02:00:53;;;;;;;;;;;15.30;67.80;;;10.88;100.00;95776.16;4940186;28;19993;-50
2022/10/14 02:03:19;;;;;;;;;;;15.20;67.90;;;10.80;100.00;95778.53;4931683;29;19917;-48
2022/10/14 02:06:07;;;;;;;;;;;15.20;67.90;;;10.73;100.00;95777.97;4944501;28;19913;-47
2022/10/14 02:09:00;;;;;;;;;;;15.10;68.00;;;10.68;100.00;95772.59;4937489;28;19910;-51
2022/10/14 02:11:40;;;;;;;;;;;15.00;68.10;;;10.65;100.00;95771.25;4936212;28;19914;-50
2022/10/14 02:14:15;;;;;;;;;;;15.00;68.30;;;10.65;100.00;95769.41;4930943;28;20377;-49
2022/10/14 02:16:58;;;;;;;;;;;15.00;68.40;;;10.64;100.00;95765.13;4968319;28;20376;-52
2022/10/14 02:19:47;;;;;;;;;;;15.00;68.40;;;10.60;100.00;95763.25;4948572;28;19918;-49
2022/10/14 02:22:39;;;;;;;;;;;15.00;68.40;;;10.57;100.00;95761.91;4932838;29;19914;-48
2022/10/14 02:25:26;;;;;;;;;;;14.90;68.30;;;10.50;100.00;95760.53;4941569;28;20297;-47
2022/10/14 02:27:53;;;;;;;;;;;14.90;68.40;;;10.52;100.00;95753.09;4948361;28;19917;-51
2022/10/14 02:30:21;;;;;;;;;;;14.80;68.40;;;10.50;100.00;95750.69;4946282;28;19910;-48
2022/10/14 02:32:48;;;;;;;;;;;14.80;68.40;;;10.41;100.00;95761.03;4917168;29;20381;-48
2022/10/14 02:35:20;;;;;;;;;;;14.80;68.50;;;10.38;100.00;95758.91;4934449;29;19919;-50
2022/10/14 02:37:56;;;;;;;;;;;14.80;68.60;;;10.36;100.00;95763.66;4946706;28;19916;-49
2022/10/14 02:40:45;;;;;;;;;;;14.80;68.60;;;10.38;100.00;95758.09;4964631;28;19917;-52
2022/10/14 02:43:15;;;;;;;;;;;14.70;68.60;;;10.41;100.00;95755.72;4940511;28;20056;-48
2022/10/14 02:45:42;;;;;;;;;;;14.70;68.70;;;10.40;100.00;95753.28;4919114;28;20003;-48
2022/10/14 02:48:10;;;;;;;;;;;14.70;68.70;;;10.37;100.00;95751.16;4951256;23;20406;-47
2022/10/14 02:50:41;;;;;;;;;;;14.70;68.70;;;10.35;100.00;95750.63;4938066;28;19925;-47
2022/10/14 02:53:16;;;;;;;;;;;14.70;68.70;;;10.34;100.00;95741.84;4951920;28;20308;-46
2022/10/14 02:55:41;;;;;;;;;;;14.70;68.70;;;10.34;100.00;95730.38;4949792;28;19996;-48
2022/10/14 02:58:07;;;;;;;;;;;14.70;68.70;;;10.33;100.00;95739.41;4923587;29;20366;-46
2022/10/14 03:00:36;;;;;;;;;;;14.70;68.70;;;10.31;100.00;95739.69;4936349;28;20009;-48
2022/10/14 03:03:02;;;;;;;;;;;14.70;68.80;;;10.36;100.00;95734.38;4914945;29;19911;-49
2022/10/14 03:05:28;;;;;;;;;;;14.70;68.80;;;10.35;100.00;95732.78;4900336;29;19911;-47
2022/10/14 03:07:54;;;;;;;;;;;14.60;68.80;;;10.36;100.00;95734.38;4923845;29;19910;-49
2022/10/14 03:10:20;;;;;;;;;;;14.60;68.90;;;10.33;100.00;95732.22;4913392;29;19910;-48
2022/10/14 03:12:46;;;;;;;;;;;14.60;68.90;;;10.32;100.00;95735.97;4915657;29;19940;-50
2022/10/14 03:15:17;;;;;;;;;;;14.60;69.00;;;10.32;100.00;95727.19;4914800;29;19911;-48
2022/10/14 03:17:43;;;;;;;;;;;14.60;69.80;;;10.30;100.00;95722.09;4929209;29;19921;-46
2022/10/14 03:20:10;;;;;;;;;;;14.60;69.00;;;10.27;100.00;95721.81;4932297;29;19911;-47
2022/10/14 03:22:38;;;;;;;;;;;14.60;69.00;;;10.25;100.00;95718.56;4924997;29;19957;-46
2022/10/14 03:25:05;;;;;;;;;;;14.60;69.70;;;10.22;100.00;95717.25;4937958;28;19914;-46
2022/10/14 03:27:36;;;;;;;;;;;14.60;68.90;;;10.18;100.00;95713.47;4929079;29;20324;-47
2022/10/14 03:30:12;;;;;;;;;;;14.60;68.90;;;10.15;100.00;95714.00;4914765;29;20001;-47
2022/10/14 03:32:44;;;;;;;;;;;14.50;68.80;;;10.14;100.00;95715.06;4914735;29;19911;-49
2022/10/14 03:35:09;;;;;;;;;;;14.50;68.90;;;10.10;100.00;95716.66;4929058;29;19911;-46
2022/10/14 03:37:44;;;;;;;;;;;14.50;68.90;;;10.07;100.00;95709.19;4932808;28;20440;-49
2022/10/14 03:40:10;;;;;;;;;;;14.40;68.90;;;10.06;100.00;95705.72;4914373;29;19911;-48
2022/10/14 03:42:36;;;;;;;;;;;14.40;68.90;;;10.03;100.00;95708.06;4920732;29;19969;-48
2022/10/14 03:45:08;;;;;;;;;;;14.40;69.00;;;10.01;100.00;95707.53;4933494;29;19914;-49
2022/10/14 03:47:33;;;;;;;;;;;14.30;68.90;;;9.92;100.00;95705.34;4935168;29;19957;-46
2022/10/14 03:50:06;;;;;;;;;;;14.30;69.00;;;9.89;100.00;95702.41;4928098;29;20416;-46
2022/10/14 03:52:32;;;;;;;;;;;14.30;69.00;;;9.84;100.00;95695.22;4933481;29;19910;-46
2022/10/14 03:55:08;;;;;;;;;;;14.20;69.10;;;9.82;100.00;95689.34;4931145;29;19918;-46
2022/10/14 03:57:52;;;;;;;;;;;14.20;69.10;;;9.77;100.00;95693.81;4920671;29;19934;-46
2022/10/14 04:00:18;;;;;;;;;;;14.10;69.00;;;9.72;100.00;95695.41;4918293;29;19918;-48
2022/10/14 04:02:44;;;;;;;;;;;14.10;69.10;;;9.68;100.00;95693.50;4902929;29;20294;-45
2022/10/14 04:05:10;;;;;;;;;;;14.00;69.10;;;9.60;100.00;95692.13;4914230;29;19965;-47
2022/10/14 04:07:41;;;;;;;;;;;14.00;69.10;;;9.56;100.00;95696.34;4915746;29;19997;-46
2022/10/14 04:10:16;;;;;;;;;;;14.00;69.20;;;9.48;100.00;95694.16;4914285;29;19911;-47
2022/10/14 04:12:42;;;;;;;;;;;13.90;69.10;;;9.37;100.00;95685.31;4904716;29;19918;-47
2022/10/14 04:15:27;;;;;;;;;;;13.90;69.20;;;9.36;100.00;95691.66;4916143;29;20021;-48
2022/10/14 04:17:52;;;;;;;;;;;13.80;69.20;;;9.34;100.00;95685.81;4930679;29;19910;-51
2022/10/14 04:20:24;;;;;;;;;;;13.80;69.30;;;9.32;100.00;95681.81;4916249;29;19910;-47
2022/10/14 04:22:50;;;;;;;;;;;13.80;69.40;;;9.35;100.00;95682.09;4915522;29;20374;-48
2022/10/14 04:25:16;;;;;;;;;;;13.80;69.50;;;9.36;100.00;95678.38;4910712;29;19917;-48
2022/10/14 04:27:44;;;;;;;;;;;13.80;69.60;;;9.40;100.00;95676.84;4932640;29;20001;-49
2022/10/14 04:30:17;;;;;;;;;;;13.80;69.70;;;9.45;100.00;95679.50;4915319;29;20344;-47
2022/10/14 04:32:52;;;;;;;;;;;13.80;69.70;;;9.49;100.00;95670.00;4931767;29;19914;-49
2022/10/14 04:35:24;;;;;;;;;;;13.90;69.80;;;9.54;100.00;95671.88;4933073;29;19910;-51
2022/10/14 04:37:53;;;;;;;;;;;13.90;69.80;;;9.58;100.00;95667.63;4923272;29;19914;-45
2022/10/14 04:40:23;;;;;;;;;;;13.90;69.90;;;9.63;100.00;95670.34;4912893;29;20005;-47
2022/10/14 04:42:48;;;;;;;;;;;13.90;69.90;;;9.70;100.00;95673.56;4921441;29;20254;-49
2022/10/14 04:45:32;;;;;;;;;;;14.00;70.00;;;9.78;100.00;95664.31;4948522;28;19913;-49
2022/10/14 04:47:58;;;;;;;;;;;14.10;70.00;;;9.84;100.00;95665.94;4934043;28;19922;-47
2022/10/14 04:50:26;;;;;;;;;;;14.10;70.10;;;9.87;100.00;95659.28;4954354;28;19918;-47
2022/10/14 04:52:52;;;;;;;;;;;14.10;70.00;;;9.90;100.00;95651.63;4974649;28;20391;-50
2022/10/14 04:55:18;;;;;;;;;;;14.20;70.00;;;9.93;100.00;95647.63;4963690;28;19960;-46
2022/10/14 04:57:46;;;;;;;;;;;14.30;70.00;;;9.96;100.00;95637.28;4974229;28;19917;-47
2022/10/14 05:00:13;;;;;;;;;;;14.30;70.00;;;10.02;100.00;95642.59;4971985;28;19920;-46
2022/10/14 05:02:39;;;;;;;;;;;14.40;70.00;;;10.05;100.00;95636.78;4974286;28;20367;-47
2022/10/14 05:05:06;;;;;;;;;;;14.40;69.90;;;10.08;100.00;95629.06;4941086;28;20028;-47
2022/10/14 05:07:36;;;;;;;;;;;14.50;70.00;;;10.13;100.00;95629.09;4967718;28;19909;-46
2022/10/14 05:10:04;;;;;;;;;;;14.50;69.90;;;10.16;100.00;95628.56;4957110;28;19909;-48
2022/10/14 05:12:44;;;;;;;;;;;14.50;69.90;;;10.18;100.00;95626.47;4948954;28;19909;-48
2022/10/14 05:15:13;;;;;;;;;;;14.60;69.90;;;10.19;100.00;95617.41;4943778;28;20012;-46
2022/10/14 05:17:43;;;;;;;;;;;14.60;70.00;;;10.27;100.00;95620.66;4955433;28;20315;-46
2022/10/14 05:20:24;;;;;;;;;;;14.60;70.00;;;10.29;100.00;95616.66;4948869;28;20364;-49
2022/10/14 05:22:49;;;;;;;;;;;14.70;70.00;;;10.34;100.00;95618.53;4973013;28;19920;-46
2022/10/14 05:25:24;;;;;;;;;;;14.70;70.00;;;10.38;100.00;95623.09;4972894;28;20352;-47
2022/10/14 05:27:52;;;;;;;;;;;14.70;70.00;;;10.39;100.00;95614.03;4973799;28;20480;-46
2022/10/14 05:30:24;;;;;;;;;;;14.80;70.00;;;10.44;100.00;95612.47;4952235;28;19914;-48
2022/10/14 05:32:53;;;;;;;;;;;14.80;69.90;;;10.45;100.00;95598.06;4962155;28;19950;-46
2022/10/14 05:35:21;;;;;;;;;;;14.90;69.90;;;10.50;100.00;95604.22;4956688;28;19910;-48
2022/10/14 05:37:52;;;;;;;;;;;14.90;69.90;;;10.54;100.00;95593.84;4941318;28;19917;-46
2022/10/14 05:40:18;;;;;;;;;;;15.00;69.90;;;10.58;100.00;95592.25;4972572;28;19919;-48
2022/10/14 05:42:44;;;;;;;;;;;15.00;69.90;;;10.57;100.00;95594.09;4966726;28;20451;-47
2022/10/14 05:45:10;;;;;;;;;;;15.00;69.90;;;10.59;100.00;95591.16;4967421;28;20323;-52
2022/10/14 05:47:36;;;;;;;;;;;15.10;69.90;;;10.64;100.00;95591.19;4963842;28;19918;-50
2022/10/14 05:50:05;;;;;;;;;;;15.10;69.80;;;10.67;100.00;95585.31;4943184;28;19910;-49
2022/10/14 05:52:39;;;;;;;;;;;15.10;69.80;;;10.72;100.00;95587.19;4941160;28;19910;-50
2022/10/14 05:55:08;;;;;;;;;;;15.20;69.80;;;10.72;100.00;95593.34;4942159;28;19957;-49
2022/10/14 05:57:34;;;;;;;;;;;15.20;69.80;;;10.75;100.00;95589.31;4923711;28;19914;-50
2022/10/14 06:00:01;;;;;;;;;;;15.20;69.70;;;10.79;100.00;95585.88;4929850;28;19979;-48
2022/10/14 06:02:26;;;;;;;;;;;15.30;69.70;;;10.83;100.00;95594.94;4931741;28;19921;-50
2022/10/14 06:04:52;;;;;;;;;;;15.40;69.70;;;10.84;100.00;95593.06;4953995;28;19910;-49
2022/10/14 06:07:18;;;;;;;;;;;15.50;69.70;;;10.91;100.00;95592.81;4945421;28;19917;-47
2022/10/14 06:09:44;;;;;;;;;;;15.50;69.70;;;10.96;100.00;95592.81;4953673;28;19917;-49
2022/10/14 06:12:13;;;;;;;;;;;15.50;69.60;;;10.97;100.00;95594.41;4914518;29;19911;-46
2022/10/14 06:14:39;;;;;;;;;;;15.60;69.60;;;10.99;100.00;95598.41;4935584;28;20444;-46
2022/10/14 06:17:06;;;;;;;;;;;15.60;69.60;;;11.03;100.00;95604.81;4930090;28;20050;-46
2022/10/14 06:19:32;;;;;;;;;;;15.60;69.60;;;11.06;100.00;95598.13;4934934;28;20284;-48
2022/10/14 06:21:58;;;;;;;;;;;15.60;69.60;;;11.04;100.00;95598.41;4935120;28;19917;-47
2022/10/14 06:24:24;;;;;;;;;;;15.70;69.70;;;11.08;100.00;95596.81;4943025;28;19912;-47
2022/10/14 06:26:49;;;;;;;;;;;15.70;69.60;;;11.15;100.00;95590.41;4921595;29;19960;-46
2022/10/14 06:29:16;;;;;;;;;;;15.70;69.50;;;11.16;100.00;95590.16;4920197;28;19949;-46
2022/10/14 06:31:42;;;;;;;;;;;15.80;70.20;;;11.17;100.00;95590.94;4945241;28;20036;-47
2022/10/14 06:34:08;;;;;;;;;;;15.80;69.40;;;11.20;100.00;95591.22;4953051;28;19937;-46
2022/10/14 06:36:35;;;;;;;;;;;15.90;69.40;;;11.25;100.00;95596.56;4925664;29;19910;-46
2022/10/14 06:39:03;;;;;;;;;;;15.90;69.40;;;11.31;100.00;95600.00;4939471;28;20619;-46
2022/10/14 06:41:29;;;;;;;;;;;16.00;69.40;;;11.34;100.00;95597.59;4936560;28;20016;-46
2022/10/14 06:44:00;;;;;;;;;;;16.00;69.50;;;11.40;100.00;95602.91;4945028;28;20339;-46
2022/10/14 06:46:30;;;;;;;;;;;16.00;69.30;;;11.41;100.00;95602.66;4953107;28;19944;-47
2022/10/14 06:48:56;;;;;;;;;;;16.10;69.40;;;11.47;100.00;95595.44;4945015;28;20265;-47
2022/10/14 06:51:22;;;;;;;;;;;16.20;69.40;;;11.52;100.00;95595.44;4953257;28;19909;-47
2022/10/14 06:53:47;;;;;;;;;;;16.20;69.20;;;11.58;100.00;95597.03;4950199;28;19949;-47
2022/10/14 06:56:16;;;;;;;;;;;16.30;69.20;;;11.58;100.00;95592.47;4927348;28;19916;-47
2022/10/14 06:58:45;;;;;;;;;;;16.30;69.10;;;11.62;100.00;95584.72;4953167;28;20768;-48
2022/10/14 07:01:25;;;;;;;;;;;16.30;69.10;;;11.67;100.00;95592.75;4949096;28;19950;-47
2022/10/14 07:03:54;;;;;;;;;;;16.40;69.10;;;11.73;100.00;95593.53;4952997;28;19917;-47
2022/10/14 07:06:20;;;;;;;;;;;16.40;69.10;;;11.74;100.00;95590.56;4928753;28;19911;-46
2022/10/14 07:08:46;;;;;;;;;;;16.50;69.10;;;11.77;100.00;95590.03;4919734;28;19918;-47
2022/10/14 07:11:14;;;;;;;;;;;16.50;69.00;;;11.78;100.00;95597.00;4952926;28;19972;-47
2022/10/14 07:13:40;;;;;;;;;;;16.50;69.00;;;11.81;100.00;95595.63;4935253;28;19915;-49
2022/10/14 07:16:14;;;;;;;;;;;16.50;69.00;;;11.83;100.00;95601.50;4947004;28;20281;-46
2022/10/14 07:18:43;;;;;;;;;;;16.60;69.00;;;11.85;100.00;95606.59;4943547;28;20009;-47
2022/10/14 07:21:09;;;;;;;;;;;16.60;69.00;;;11.88;100.00;95606.84;4933323;29;19914;-46
2022/10/14 07:23:35;;;;;;;;;;;16.60;69.00;;;11.92;100.00;95607.13;4932772;29;19911;-49
2022/10/14 07:26:01;;;;;;;;;;;16.60;69.00;;;11.92;100.00;95607.91;4931812;29;20297;-47
2022/10/14 07:28:27;;;;;;;;;;;16.60;69.00;;;11.93;100.00;95612.16;4933487;29;19922;-46
2022/10/14 07:31:02;;;;;;;;;;;16.70;69.00;;;11.99;100.00;95611.06;4912917;29;19914;-47
2022/10/14 07:33:28;;;;;;;;;;;16.70;69.00;;;12.02;100.00;95607.06;4914434;29;19914;-48
2022/10/14 07:35:54;;;;;;;;;;;16.80;68.90;;;12.06;100.00;95615.34;4899653;29;19922;-50
2022/10/14 07:38:21;;;;;;;;;;;16.90;68.90;;;12.11;100.00;95615.31;4900954;29;19948;-47
2022/10/14 07:41:06;;;;;;;;;;;16.90;68.80;;;12.14;100.00;95623.59;4917607;29;20326;-51
2022/10/14 07:43:33;;;;;;;;;;;17.00;68.80;;;12.15;100.00;95616.38;4928124;29;20333;-48
2022/10/14 07:46:07;;;;;;;;;;;17.10;68.70;;;12.18;100.00;95627.28;4932775;29;20340;-48
2022/10/14 07:48:36;;;;;;;;;;;17.10;68.70;;;12.24;100.00;95638.75;4937000;28;20297;-48
2022/10/14 07:51:08;;;;;;;;;;;17.10;68.70;;;12.24;100.00;95639.56;4914440;29;19961;-51
2022/10/14 07:53:35;;;;;;;;;;;17.20;68.80;;;12.29;100.00;95643.31;4912845;29;20404;-47
2022/10/14 07:56:04;;;;;;;;;;;17.10;68.70;;;12.27;100.00;95647.03;4923794;29;20013;-50
2022/10/14 07:58:33;;;;;;;;;;;17.20;68.70;;;12.31;100.00;95654.50;4914200;29;20397;-50
2022/10/14 08:00:59;;;;;;;;;;;17.10;68.60;;;12.32;100.00;95654.22;4913426;29;20332;-48
2022/10/14 08:03:33;;;;;;;;;;;17.10;68.70;;;12.36;100.00;95654.47;4914213;29;19911;-50
2022/10/14 08:06:03;;;;;;;;;;;17.20;68.70;;;12.37;100.00;95658.75;4913323;29;20131;-46
2022/10/14 08:08:29;;;;;;;;;;;17.20;68.70;;;12.40;100.00;95675.00;4897177;29;20428;-47
2022/10/14 08:11:11;;;;;;;;;;;17.20;68.70;;;12.42;100.00;95664.88;4910711;29;19918;-46
2022/10/14 08:13:39;;;;;;;;;;;17.30;68.70;;;12.38;100.00;95669.16;4920072;29;20057;-50
2022/10/14 08:16:24;;;;;;;;;;;17.30;68.60;;;12.45;100.00;95677.69;4912163;29;19911;-48
2022/10/14 08:18:51;;;;;;;;;;;17.30;68.70;;;12.46;100.00;95670.47;4922824;29;19915;-48
2022/10/14 08:21:25;;;;;;;;;;;17.30;68.70;;;12.48;100.00;95671.00;4916410;29;20369;-48
2022/10/14 08:23:54;;;;;;;;;;;17.30;68.70;;;12.50;100.00;95669.66;4917332;29;19911;-47
2022/10/14 08:26:33;;;;;;;;;;;17.20;68.70;;;12.53;100.00;95664.81;4933467;28;20005;-50
2022/10/14 08:29:04;;;;;;;;;;;17.20;68.80;;;12.56;100.00;95665.06;4936816;28;19915;-47
2022/10/14 08:31:31;;;;;;;;;;;17.20;68.90;;;12.60;100.00;95660.00;4941922;28;19989;-52
2022/10/14 08:33:58;;;;;;;;;;;17.20;68.90;;;12.62;100.00;95660.50;4946662;28;19926;-50
2022/10/14 08:36:24;;;;;;;;;;;17.30;68.90;;;12.69;100.00;95661.81;4939176;28;19914;-47
2022/10/14 08:38:54;;;;;;;;;;;17.40;68.90;;;12.74;100.00;95663.63;4937636;28;19949;-49
2022/10/14 08:42:01;;;;;;;;;;;17.40;68.90;;;12.81;100.00;95660.66;4941366;28;19954;-47
2022/10/14 08:44:42;;;;;;;;;;;17.40;68.90;;;12.84;100.00;95660.91;4925145;28;19949;-47
2022/10/14 08:47:39;;;;;;;;;;;17.50;69.10;;;12.86;100.00;95657.97;4941232;28;19950;-47
2022/10/14 08:50:43;;;;;;;;;;;17.40;68.90;;;12.83;100.00;95651.28;4998581;23;20101;-46
2022/10/14 08:53:27;;;;;;;;;;;17.50;69.00;;;12.81;100.00;95650.75;4960640;28;20351;-47
2022/10/14 08:56:02;;;;;;;;;;;17.50;68.70;;;12.80;100.00;95643.81;4978759;28;20172;-47
2022/10/14 08:58:38;;;;;;;;;;;17.50;68.60;;;12.83;100.00;95653.16;4990915;28;19910;-47
2022/10/14 09:01:27;;;;;;;;;;;17.50;68.60;;;12.84;100.00;95646.75;4978549;28;20109;-48
2022/10/14 09:04:06;;;;;;;;;;;17.60;68.60;;;12.87;100.00;95641.63;4991341;28;19945;-49
2022/10/14 09:06:41;;;;;;;;;;;17.60;68.60;;;12.80;100.00;95648.38;4983352;28;19920;-47
2022/10/14 09:09:40;;;;;;;;;;;17.70;68.50;;;12.91;100.00;95650.72;4976773;28;19921;-49
2022/10/14 09:12:25;;;;;;;;;;;17.70;68.40;;;12.98;100.00;95642.38;4971227;28;20410;-48
2022/10/14 09:15:32;;;;;;;;;;;17.80;68.40;;;13.07;100.00;95648.75;4975901;28;20004;-47
2022/10/14 09:18:06;;;;;;;;;;;17.90;68.40;;;13.06;100.00;95644.44;4969671;28;20541;-48
2022/10/14 09:20:32;;;;;;;;;;;18.00;68.20;;;13.12;100.00;95640.66;4958924;28;19910;-49
2022/10/14 09:23:17;;;;;;;;;;;18.10;68.10;;;13.27;100.00;95636.31;4973627;28;20022;-46
2022/10/14 09:26:10;;;;;;;;;;;18.20;68.00;;;13.39;100.00;95645.56;4960115;28;19921;-47
2022/10/14 09:28:42;;;;;;;;;;;18.40;67.90;;;13.48;99.29;95642.31;4976906;28;20393;-47
2022/10/14 09:31:12;;;;;;;;;;;18.50;67.90;;;13.48;99.16;95636.97;4987205;28;20008;-47
2022/10/14 09:33:40;;;;;;;;;;;18.60;67.80;;;13.54;99.42;95638.50;4972124;28;20265;-46
2022/10/14 09:36:19;;;;;;;;;;;18.70;67.60;;;13.68;99.57;95636.75;4975923;28;20004;-46
2022/10/14 09:38:51;;;;;;;;;;;18.80;67.40;;;13.79;98.47;95637.47;4960072;28;19917;-49
2022/10/14 09:41:26;;;;;;;;;;;19.00;67.30;;;13.76;96.73;95630.78;4976094;28;19916;-46
2022/10/14 09:44:24;;;;;;;;;;;19.10;67.10;;;13.98;96.93;95632.97;4968004;28;19909;-52
2022/10/14 09:47:08;;;;;;;;;;;19.30;66.90;;;14.19;96.19;95630.84;4981437;28;19909;-47
2022/10/14 09:49:47;;;;;;;;;;;19.50;66.70;;;14.45;97.33;95633.25;4971910;28;19927;-48
2022/10/14 09:52:27;;;;;;;;;;;19.70;66.60;;;14.62;93.77;95638.13;4989858;28;19940;-46
2022/10/14 09:54:59;;;;;;;;;;;20.10;66.40;;;14.79;94.37;95633.88;4968715;28;20000;-58
2022/10/14 09:57:28;;;;;;;;;;;20.30;66.00;;;15.02;92.29;95632.19;4969345;28;20346;-46
2022/10/14 10:00:24;;;;;;;;;;;20.60;65.70;;;15.25;90.84;95629.69;4966162;28;19921;-48
2022/10/14 10:02:51;;;;;;;;;;;20.90;65.50;;;15.46;90.31;95625.59;4979754;28;19972;-47
2022/10/14 10:05:34;;;;;;;;;;;21.10;65.20;;;15.61;89.18;95627.25;4986200;28;20298;-49
2022/10/14 10:08:18;;;;;;;;;;;21.40;65.10;;;15.73;86.98;95622.22;4969636;28;20007;-54
2022/10/14 10:11:27;;;;;;;;;;;21.50;64.60;;;15.79;84.38;95628.28;4971040;28;19910;-50
2022/10/14 10:13:53;;;;;;;;;;;21.70;64.40;;;15.96;85.07;95628.50;4939177;28;19920;-52
2022/10/14 10:16:33;;;;;;;;;;;21.70;64.20;;;16.04;83.57;95613.56;4987893;28;19909;-46
2022/10/14 10:19:30;;;;;;;;;;;21.70;64.10;;;16.21;84.15;95618.38;4973140;28;19909;-46
2022/10/14 10:22:25;;;;;;;;;;;21.80;64.00;;;16.26;85.52;95610.19;4967368;28;19916;-46
2022/10/14 10:25:00;;;;;;;;;;;21.90;63.80;;;16.43;81.88;95605.00;4988726;28;20029;-47
2022/10/14 10:27:49;;;;;;;;;;;22.10;63.70;;;16.56;83.01;95606.09;4994246;28;20279;-47
2022/10/14 10:31:01;;;;;;;;;;;22.30;64.20;;;16.70;81.33;95605.25;4984688;28;19917;-49
2022/10/14 10:33:36;;;;;;;;;;;22.40;63.20;;;16.79;81.01;95608.84;4942779;28;19913;-52
2022/10/14 10:36:39;;;;;;;;;;;22.60;62.90;;;16.85;81.88;95618.41;4965496;28;20551;-52
2022/10/14 10:39:28;;;;;;;;;;;22.70;62.40;;;16.86;79.74;95603.88;4965700;28;19909;-47
2022/10/14 10:42:09;;;;;;;;;;;22.70;62.00;;;16.76;81.43;95607.56;4960712;28;19909;-47
2022/10/14 10:45:26;;;;;;;;;;;22.80;61.50;;;16.82;78.71;95597.47;4961178;28;19910;-47
2022/10/14 10:49:13;;;;;;;;;;;22.80;61.30;;;16.91;77.97;95595.66;4971410;28;19933;-48
2022/10/14 10:51:56;;;;;;;;;;;22.90;61.10;;;16.79;77.60;95590.03;4952928;28;19925;-50
2022/10/14 10:54:43;;;;;;;;;;;23.00;60.50;;;16.65;77.99;95588.13;4951923;28;19958;-49
2022/10/14 10:57:51;;;;;;;;;;;23.00;60.00;;;16.95;79.68;95585.09;4974211;28;19936;-48
2022/10/14 11:00:22;;;;;;;;;;;23.10;59.80;;;17.16;78.98;95585.41;4976712;28;20371;-49
2022/10/14 11:03:31;;;;;;;;;;;23.20;59.70;;;17.26;78.25;95577.06;4957245;28;20276;-48
2022/10/14 11:12:01;;;;;;;;;;;23.20;59.70;;;17.42;74.96;95575.59;4974309;28;20607;-50
2022/10/14 11:12:19;;;;;;;;;;;23.20;59.80;;;17.44;77.24;95578.00;4989005;28;19921;-50
2022/10/14 11:15:24;;;;;;;;;;;23.10;59.70;;;17.37;76.85;95572.25;4991851;28;20430;-50
2022/10/14 11:18:33;;;;;;;;;;;23.00;59.80;;;17.45;77.01;95569.59;4963704;28;19913;-53
2022/10/14 11:21:32;;;;;;;;;;;22.70;60.00;;;17.44;77.17;95567.22;4982936;28;19949;-46
2022/10/14 11:24:10;;;;;;;;;;;22.50;60.00;;;17.38;77.60;95563.06;4971359;28;20426;-47
2022/10/14 11:27:08;;;;;;;;;;;22.50;60.40;;;17.33;79.84;95566.69;4977141;28;19975;-47
2022/10/14 11:29:55;;;;;;;;;;;22.30;60.50;;;17.17;80.34;95552.78;4982417;28;19916;-48
2022/10/14 11:32:45;;;;;;;;;;;22.30;60.60;;;17.02;80.00;95553.97;4961317;28;19920;-47
2022/10/14 11:35:32;;;;;;;;;;;22.10;60.40;;;16.62;81.47;95551.09;4979678;28;19918;-47
2022/10/14 11:38:29;;;;;;;;;;;21.90;60.30;;;16.55;82.43;95553.41;4982891;28;19921;-46
2022/10/14 11:41:23;;;;;;;;;;;21.70;60.40;;;16.45;83.33;95555.50;4976300;28;19914;-47
2022/10/14 11:43:52;;;;;;;;;;;21.50;60.50;;;16.46;83.94;95551.75;4973750;28;19920;-48
2022/10/14 11:46:30;;;;;;;;;;;21.40;60.80;;;16.37;87.03;95555.13;4956256;28;19916;-48
2022/10/14 11:49:43;;;;;;;;;;;21.30;60.90;;;16.28;85.88;95550.78;4957239;28;20407;-49
2022/10/14 11:52:24;;;;;;;;;;;21.20;61.10;;;16.15;87.48;95541.63;4983554;28;19918;-49
2022/10/14 11:55:04;;;;;;;;;;;21.10;61.20;;;16.12;86.82;95531.50;4981444;28;19921;-46